Time;durP1;ratioP1;P1;durP2;ratioP2;P2;SDS_P1;SDS_P2;PMS_P1;PMS_P2;Temp;Humidity;BMP_temperature;BMP_pressure;BME280_temperature;BME280_humidity;BME280_pressure;Samples;Min_cycle;Max_cycle;Signal;HPM_P1;HPM_P2
2022/02/07 00:03:48;;;;;;;7.90;1.80;;;;;;;3.73;62.85;98849.34;10466792;28;20037;-66
2022/02/07 00:08:51;;;;;;;6.22;1.73;;;;;;;3.87;62.42;98846.97;10468115;28;20479;-66
2022/02/07 00:13:53;;;;;;;7.32;1.90;;;;;;;3.91;62.21;98866.59;10468072;28;20136;-67
2022/02/07 00:18:55;;;;;;;7.40;1.88;;;;;;;3.71;62.31;98874.44;10469525;28;20048;-66
2022/02/07 00:23:57;;;;;;;9.52;1.90;;;;;;;3.74;62.03;98863.97;10466421;28;20113;-67
2022/02/07 00:28:59;;;;;;;9.43;2.03;;;;;;;3.72;61.99;98873.56;10467583;28;20684;-66
2022/02/07 00:34:01;;;;;;;8.07;1.80;;;;;;;3.75;62.06;98883.72;10467564;28;20143;-67
2022/02/07 00:39:09;;;;;;;7.30;2.08;;;;;;;3.64;61.43;98898.94;10466625;28;20051;-66
2022/02/07 00:44:15;;;;;;;8.00;2.00;;;;;;;3.65;61.20;98909.22;10467185;28;20044;-67
2022/02/07 00:49:17;;;;;;;12.38;2.20;;;;;;;3.67;61.30;98919.47;10465483;28;20505;-66
2022/02/07 00:54:19;;;;;;;10.15;2.25;;;;;;;3.79;61.62;98919.72;10467242;28;20048;-66
2022/02/07 00:59:23;;;;;;;10.15;2.28;;;;;;;3.88;61.32;98929.63;10467054;28;20067;-66
2022/02/07 01:04:24;;;;;;;10.07;2.05;;;;;;;3.85;60.34;98947.06;10466493;28;20059;-66
2022/02/07 01:09:39;;;;;;;8.85;2.20;;;;;;;3.86;60.83;98953.94;10466523;28;20045;-67
2022/02/07 01:56:44;;;;;;;9.85;2.00;;;;;;;2.88;65.33;99201.22;10474061;28;20059;-66
2022/02/07 02:01:45;;;;;;;5.65;1.73;;;;;;;2.65;65.20;99220.19;10472822;28;20052;-67
2022/02/07 02:06:48;;;;;;;8.68;2.15;;;;;;;2.58;64.66;99225.66;10472736;28;20571;-67
2022/02/07 02:11:49;;;;;;;6.07;1.60;;;;;;;2.51;64.18;99261.19;10481554;28;20680;-66
2022/02/07 02:37:59;;;;;;;9.70;1.83;;;;;;;2.11;64.33;99383.00;10471680;28;20048;-67
2022/02/07 02:48:24;;;;;;;7.37;2.07;;;;;;;2.31;64.19;99415.88;10471603;28;20045;-66
2022/02/07 02:53:26;;;;;;;10.88;2.08;;;;;;;2.40;64.17;99425.06;10471151;28;20048;-66
2022/02/07 02:58:28;;;;;;;12.95;2.25;;;;;;;2.47;64.16;99447.16;10470346;28;20443;-66
2022/02/07 03:03:29;;;;;;;14.88;2.78;;;;;;;2.67;63.77;99460.22;10475705;28;20135;-66
2022/02/07 03:08:31;;;;;;;9.13;2.00;;;;;;;2.80;63.62;99476.97;10478479;28;20078;-66
2022/02/07 03:13:48;;;;;;;12.90;2.40;;;;;;;2.96;63.37;99502.19;10478854;28;20144;-66
2022/02/07 03:18:50;;;;;;;11.25;2.53;;;;;;;2.97;64.05;99557.25;10477802;28;20797;-66
2022/02/07 03:23:52;;;;;;;9.90;2.45;;;;;;;2.72;65.40;99566.75;10477699;28;20050;-66
2022/02/07 03:28:54;;;;;;;14.02;2.70;;;;;;;2.64;64.95;99586.81;10477751;28;20056;-66
2022/02/07 03:33:56;;;;;;;16.17;2.90;;;;;;;2.68;65.10;99594.41;10476740;28;20419;-66
2022/02/07 03:38:59;;;;;;;14.10;2.85;;;;;;;2.64;64.86;99599.75;10476912;28;20071;-66
2022/02/07 03:44:00;;;;;;;10.00;2.53;;;;;;;2.69;65.03;99616.75;10477022;28;20477;-66
2022/02/07 03:49:03;;;;;;;10.50;2.05;;;;;;;2.62;64.69;99610.09;10477648;28;20044;-67
2022/02/07 03:54:05;;;;;;;12.02;2.40;;;;;;;2.65;64.49;99627.22;10476137;28;20040;-66
2022/02/07 03:59:06;;;;;;;9.27;2.20;;;;;;;2.40;64.70;99649.56;10476483;28;20521;-66
2022/02/07 04:04:08;;;;;;;10.30;2.05;;;;;;;2.48;65.37;99669.06;10471209;28;20057;-66
2022/02/07 04:09:13;;;;;;;11.32;2.40;;;;;;;2.62;65.63;99679.78;10469620;28;20057;-66
2022/02/07 04:14:21;;;;;;;11.05;2.35;;;;;;;2.55;65.64;99711.88;10469351;28;20052;-66
2022/02/07 04:19:30;;;;;;;9.30;2.20;;;;;;;2.59;65.34;99708.31;10469198;28;20055;-66
2022/02/07 04:24:32;;;;;;;7.22;2.50;;;;;;;2.53;64.88;99718.81;10468622;28;20041;-66
2022/02/07 04:29:34;;;;;;;10.77;2.75;;;;;;;2.50;64.79;99733.56;10468688;28;20543;-66
2022/02/07 04:34:38;;;;;;;12.25;2.40;;;;;;;2.50;64.75;99739.53;10476850;28;20045;-66
2022/02/07 04:39:39;;;;;;;17.80;2.72;;;;;;;2.60;64.83;99769.34;10473808;28;20059;-66
2022/02/07 04:44:53;;;;;;;18.17;3.03;;;;;;;2.66;64.80;99782.06;10468528;28;20364;-66
2022/02/07 04:50:25;;;;;;;14.15;2.50;;;;;;;2.78;64.40;99802.41;10468093;28;20420;-66
2022/02/07 05:16:11;;;;;;;13.43;2.80;;;;;;;2.58;63.47;99866.66;10467450;28;20441;-66
2022/02/07 05:21:13;;;;;;;14.00;2.83;;;;;;;2.61;63.76;99857.97;10466862;28;20131;-66
2022/02/07 05:26:15;;;;;;;13.50;2.63;;;;;;;2.68;63.22;99880.16;10467180;28;20055;-65
2022/02/07 05:31:19;;;;;;;14.38;2.70;;;;;;;2.74;64.14;99900.66;10467346;28;20049;-66
2022/02/07 05:36:21;;;;;;;15.75;3.97;;;;;;;2.71;64.15;99924.81;10466902;28;20155;-65
2022/02/07 05:41:23;;;;;;;14.93;3.00;;;;;;;2.78;63.85;99922.91;10475573;28;20048;-66
2022/02/07 05:46:25;;;;;;;14.40;2.55;;;;;;;2.81;63.92;99944.31;10467304;28;20055;-66
2022/02/07 05:51:27;;;;;;;15.80;2.85;;;;;;;2.83;63.93;99946.84;10466801;28;20141;-66
2022/02/07 05:56:29;;;;;;;17.80;3.22;;;;;;;2.88;63.84;99952.75;10466176;28;21183;-65
2022/02/07 06:01:30;;;;;;;19.88;2.92;;;;;;;2.78;63.59;99964.22;10466360;28;20051;-66
2022/02/07 06:06:32;;;;;;;16.65;3.03;;;;;;;2.63;63.64;99973.25;10474792;28;20052;-66
2022/02/07 06:11:34;;;;;;;12.32;2.70;;;;;;;2.65;64.02;99974.03;10479178;28;20060;-66
2022/02/07 06:16:36;;;;;;;18.30;4.00;;;;;;;2.43;63.81;99982.38;10474502;28;20048;-65
2022/02/07 06:21:38;;;;;;;19.48;3.45;;;;;;;2.71;63.33;100002.28;10473505;28;20044;-66
2022/02/07 06:26:40;;;;;;;17.65;3.58;;;;;;;2.88;63.51;100020.75;10473646;28;20530;-66
2022/02/07 06:31:41;;;;;;;12.95;2.92;;;;;;;2.86;63.71;100032.03;10473369;28;20049;-66
2022/02/07 06:36:43;;;;;;;17.98;3.28;;;;;;;2.81;63.46;100042.47;10473022;28;20052;-66
2022/02/07 06:41:47;;;;;;;14.15;3.22;;;;;;;2.70;63.91;100036.72;10472317;28;20460;-66
2022/02/07 06:46:48;;;;;;;23.48;3.40;;;;;;;2.72;63.56;100055.63;10471698;28;20051;-65
2022/02/07 06:51:50;;;;;;;14.80;3.00;;;;;;;2.94;63.27;100058.50;10472886;28;20044;-66
2022/02/07 06:56:53;;;;;;;18.15;3.28;;;;;;;2.87;62.95;100075.88;10473662;28;20055;-66
2022/02/07 07:01:54;;;;;;;13.02;3.20;;;;;;;2.99;62.61;100083.31;10471819;28;20140;-66
2022/02/07 07:06:56;;;;;;;17.02;2.95;;;;;;;2.91;62.56;100074.91;10472209;28;20230;-67
2022/02/07 07:12:01;;;;;;;13.82;2.50;;;;;;;2.77;62.48;100108.00;10471631;28;20051;-67
2022/02/07 07:17:06;;;;;;;16.75;3.20;;;;;;;2.88;62.46;100116.34;10472104;28;20049;-67
2022/02/07 07:22:07;;;;;;;16.08;2.80;;;;;;;3.03;62.25;100110.75;10475522;28;20279;-67
2022/02/07 07:27:09;;;;;;;17.55;3.47;;;;;;;2.97;62.41;100126.41;10471200;28;20489;-66
2022/02/07 07:32:11;;;;;;;21.80;3.25;;;;;;;3.18;62.08;100132.75;10470873;28;20044;-66
2022/02/07 07:37:13;;;;;;;22.38;3.45;;;;;;;3.01;62.67;100135.78;10470889;28;20138;-66
2022/02/07 07:42:15;;;;;;;16.90;3.40;;;;;;;2.90;62.50;100142.97;10471033;28;20056;-66
2022/02/07 07:47:23;;;;;;;12.60;2.72;;;;;;;2.85;62.27;100162.88;10468698;28;20059;-66
2022/02/07 07:52:47;;;;;;;19.73;3.60;;;;;;;3.40;62.27;100164.91;10470243;28;20052;-66
2022/02/07 08:03:13;;;;;;;19.33;3.17;;;;;;;3.20;61.62;100190.41;10469338;28;20053;-65
2022/02/07 08:08:24;;;;;;;18.23;3.25;;;;;;;3.44;61.38;100209.59;10469374;28;20466;-66
2022/02/07 08:13:29;;;;;;;21.08;3.53;;;;;;;3.44;61.45;100236.31;10467564;28;20480;-66
2022/02/07 08:18:32;;;;;;;19.35;2.90;;;;;;;3.44;62.33;100249.25;10468902;28;20044;-66
2022/02/07 08:23:35;;;;;;;18.20;2.97;;;;;;;3.44;62.43;100263.91;10468505;28;20278;-66
2022/02/07 08:28:37;;;;;;;17.45;3.25;;;;;;;3.53;62.17;100276.59;10467187;28;20076;-66
2022/02/07 08:33:39;;;;;;;15.27;3.05;;;;;;;3.65;61.83;100278.88;10468239;28;20147;-65
2022/02/07 08:38:41;;;;;;;17.73;3.13;;;;;;;3.70;61.66;100295.13;10465544;28;20044;-66
2022/02/07 08:43:43;;;;;;;15.95;3.17;;;;;;;3.78;61.58;100308.72;10461006;28;20062;-66
2022/02/07 08:48:45;;;;;;;17.17;3.40;;;;;;;3.88;61.67;100306.75;10465631;28;20036;-66
2022/02/07 08:53:48;;;;;;;16.13;3.22;;;;;;;3.82;61.19;100315.50;10466884;28;20428;-66
2022/02/07 08:58:51;;;;;;;19.80;4.72;;;;;;;4.15;61.48;100339.66;10463976;28;20055;-66
2022/02/07 09:13:57;;;;;;;17.15;3.90;;;;;;;4.03;61.66;100361.53;10466120;28;20044;-66
2022/02/07 09:19:01;;;;;;;14.93;3.15;;;;;;;4.57;60.84;100373.00;10466396;28;20056;-66
2022/02/07 09:24:03;;;;;;;16.40;3.45;;;;;;;4.99;59.90;100399.38;10473848;28;20131;-65
2022/02/07 09:29:05;;;;;;;12.98;2.80;;;;;;;4.98;59.40;100407.22;10460911;28;21098;-66
2022/02/07 09:34:08;;;;;;;12.07;3.05;;;;;;;4.98;59.25;100420.16;10460279;28;20719;-66
2022/02/07 09:39:11;;;;;;;16.90;3.50;;;;;;;5.16;59.11;100432.59;10469493;28;20511;-66
2022/02/07 09:44:13;;;;;;;18.65;3.28;;;;;;;5.06;58.36;100455.34;10470509;28;20054;-66
2022/02/07 09:49:22;;;;;;;16.77;3.22;;;;;;;5.14;58.58;100460.31;10473749;28;20045;-66
2022/02/07 09:54:23;;;;;;;14.43;3.25;;;;;;;5.07;58.91;100466.53;10474541;28;20058;-66
2022/02/07 09:59:28;;;;;;;15.52;3.17;;;;;;;5.09;59.16;100473.41;10471733;28;20656;-66
2022/02/07 10:04:38;;;;;;;12.98;2.95;;;;;;;5.25;58.63;100494.53;10475332;28;20097;-66
2022/02/07 10:09:57;;;;;;;13.90;3.13;;;;;;;5.40;58.43;100510.50;10475522;28;20044;-65
2022/02/07 10:46:20;;;;;;;15.02;3.15;;;;;;;6.03;58.25;100616.72;10473543;28;20471;-66
2022/02/07 10:51:36;;;;;;;16.85;3.22;;;;;;;5.75;58.63;100631.44;10472201;28;20128;-66
2022/02/07 10:56:45;;;;;;;14.20;3.60;;;;;;;5.86;58.58;100649.28;10473522;28;20148;-66
2022/02/07 11:06:58;;;;;;;23.38;3.88;;;;;;;5.61;59.44;100662.13;10473076;28;20049;-66
2022/02/07 11:12:38;;;;;;;14.82;3.47;;;;;;;5.50;59.75;100661.53;10473119;28;20058;-66
2022/02/07 11:23:47;;;;;;;19.67;3.95;;;;;;;5.38;60.18;100685.22;10473274;28;20098;-66
2022/02/07 11:28:38;;;;;;;15.50;3.28;;;;;;;5.40;60.48;100680.84;10467111;28;20307;-66
2022/02/07 11:33:51;;;;;;;18.48;4.05;;;;;;;5.28;60.48;100686.38;10469464;28;20554;-66
2022/02/07 11:39:13;;;;;;;18.63;4.00;;;;;;;5.24;59.82;100703.75;10471632;28;20466;-66
2022/02/07 11:44:15;;;;;;;13.95;2.92;;;;;;;5.37;59.86;100714.66;10471006;28;20351;-66
2022/02/07 11:49:24;;;;;;;15.07;3.00;;;;;;;5.55;59.71;100721.97;10471446;28;20478;-66
2022/02/07 11:54:33;;;;;;;18.10;3.75;;;;;;;5.53;59.87;100724.56;10470380;28;20053;-66
2022/02/07 11:59:43;;;;;;;13.60;3.08;;;;;;;5.73;59.59;100736.16;10469991;28;20163;-67
2022/02/07 12:04:44;;;;;;;16.80;3.20;;;;;;;5.62;58.86;100738.19;10468431;28;20492;-66
2022/02/07 12:10:44;;;;;;;21.17;3.90;;;;;;;5.88;58.11;100741.78;10472886;28;20497;-67
2022/02/07 12:15:22;;;;;;;12.80;3.38;;;;;;;6.27;58.31;100745.88;10465115;28;20074;-66
2022/02/07 12:20:33;;;;;;;16.33;3.17;;;;;;;6.58;56.52;100739.75;10468549;28;20059;-67
2022/02/07 12:25:59;;;;;;;19.05;3.65;;;;;;;6.59;56.56;100742.34;10459976;28;20140;-67
2022/02/07 12:31:10;;;;;;;17.00;2.90;;;;;;;6.47;56.65;100740.09;10471263;28;20052;-67
2022/02/07 12:36:12;;;;;;;19.48;3.70;;;;;;;6.53;56.39;100739.06;10452297;28;20059;-67
2022/02/07 12:41:16;;;;;;;18.77;4.30;;;;;;;6.76;55.40;100740.06;10466505;28;20680;-67
2022/02/07 12:46:23;;;;;;;12.38;2.80;;;;;;;7.02;54.73;100740.06;10464581;28;20579;-67
2022/02/07 12:51:42;;;;;;;16.95;3.58;;;;;;;6.95;54.24;100730.78;10462643;28;20135;-67
2022/02/07 12:56:44;;;;;;;12.35;2.70;;;;;;;6.45;55.07;100748.84;10465753;28;20849;-67
2022/02/07 13:01:46;;;;;;;15.13;3.22;;;;;;;6.55;55.94;100753.69;10466703;28;20049;-67
2022/02/07 13:06:54;;;;;;;10.52;2.58;;;;;;;6.74;55.92;100774.78;10485136;28;20056;-67
2022/02/07 13:12:11;;;;;;;13.85;3.40;;;;;;;7.02;56.03;100760.88;10467088;28;20052;-67
2022/02/07 13:17:15;;;;;;;20.00;3.30;;;;;;;6.92;55.47;100771.59;10476565;28;20045;-67
2022/02/07 13:22:18;;;;;;;12.68;3.05;;;;;;;6.43;56.58;100800.00;10475566;28;20052;-67
2022/02/07 13:27:22;;;;;;;15.98;3.63;;;;;;;6.56;56.29;100794.41;10475297;28;20048;-67
2022/02/07 13:32:26;;;;;;;15.82;3.42;;;;;;;6.44;56.41;100780.91;10472535;28;20143;-67
2022/02/07 13:37:32;;;;;;;20.15;3.63;;;;;;;6.32;57.05;100801.16;10475197;28;20041;-67
2022/02/07 13:42:42;;;;;;;15.93;3.28;;;;;;;6.37;57.18;100803.59;10475169;28;20052;-67
2022/02/07 13:47:48;;;;;;;19.95;3.90;;;;;;;6.11;57.72;100783.56;10475127;28;20139;-67
2022/02/07 13:52:55;;;;;;;16.15;3.78;;;;;;;6.24;57.55;100803.09;10476347;28;20135;-67
2022/02/07 13:58:05;;;;;;;14.00;3.20;;;;;;;6.40;56.75;100787.09;10474830;28;20412;-67
2022/02/07 14:03:19;;;;;;;14.63;2.80;;;;;;;6.58;56.01;100787.41;10473809;28;20053;-67
2022/02/07 14:08:35;;;;;;;17.33;2.97;;;;;;;6.67;55.51;100778.47;10474447;28;20048;-67
2022/02/07 14:13:38;;;;;;;13.70;2.83;;;;;;;6.74;55.75;100787.78;10473606;28;20504;-67
2022/02/07 14:18:46;;;;;;;18.08;3.05;;;;;;;6.66;55.19;100800.16;10473632;28;20048;-68
2022/02/07 14:23:50;;;;;;;13.38;2.97;;;;;;;6.69;54.68;100820.88;10474259;28;20051;-67
2022/02/07 14:29:12;;;;;;;14.02;2.88;;;;;;;6.44;54.52;100843.25;10472726;28;20052;-67
2022/02/07 14:34:14;;;;;;;15.13;3.15;;;;;;;6.33;54.21;100854.81;10472827;28;20132;-67
2022/02/07 14:39:17;;;;;;;15.43;2.90;;;;;;;6.16;54.73;100863.94;10472448;28;20044;-67
2022/02/07 14:44:26;;;;;;;14.02;2.33;;;;;;;6.09;55.02;100872.78;10474016;28;20492;-67
2022/02/07 14:49:29;;;;;;;13.73;2.60;;;;;;;6.12;54.59;100890.88;10473243;28;20047;-67
2022/02/07 14:54:34;;;;;;;14.88;2.42;;;;;;;5.97;54.38;100901.66;10473174;28;20515;-68
2022/02/07 14:59:36;;;;;;;14.32;2.78;;;;;;;5.95;54.69;100896.50;10472200;28;20052;-68
2022/02/07 15:04:38;;;;;;;13.07;2.50;;;;;;;5.98;54.13;100885.19;10472845;28;20055;-67
2022/02/07 15:09:40;;;;;;;12.75;2.70;;;;;;;6.01;54.13;100893.75;10472025;28;20303;-68
2022/02/07 15:14:49;;;;;;;14.27;2.60;;;;;;;5.94;53.71;100888.78;10471650;28;20497;-68
2022/02/07 15:19:52;;;;;;;17.30;3.13;;;;;;;5.93;53.66;100900.03;10472575;28;20301;-68
2022/02/07 15:24:57;;;;;;;12.55;2.28;;;;;;;5.58;54.59;100895.72;10472207;28;20060;-68
2022/02/07 15:29:59;;;;;;;7.50;2.10;;;;;;;5.51;54.11;100917.50;10471362;28;20052;-68
2022/02/07 15:35:04;;;;;;;10.50;2.22;;;;;;;5.59;54.50;100912.13;10463334;28;20388;-68
2022/02/07 15:40:08;;;;;;;12.27;2.55;;;;;;;5.58;54.20;100916.47;10469712;28;20511;-68
2022/02/07 15:45:11;;;;;;;10.48;2.45;;;;;;;5.50;53.77;100918.38;10468295;28;20071;-68
2022/02/07 15:50:15;;;;;;;9.98;2.10;;;;;;;5.51;53.62;100909.72;10467287;28;20083;-68
2022/02/07 15:55:18;;;;;;;14.27;2.33;;;;;;;5.46;53.29;100916.75;10461737;28;20778;-68
2022/02/07 16:00:19;;;;;;;12.93;2.55;;;;;;;5.21;53.36;100918.19;10466905;28;20281;-67
2022/02/07 16:05:23;;;;;;;11.30;2.40;;;;;;;5.05;53.62;100922.88;10466076;28;20052;-67
2022/02/07 16:10:26;;;;;;;9.75;2.13;;;;;;;4.93;53.85;100932.63;10471729;28;20040;-67
2022/02/07 16:15:28;;;;;;;10.27;3.00;;;;;;;4.82;54.18;100950.16;10469435;28;20054;-67
2022/02/07 16:20:31;;;;;;;11.00;2.45;;;;;;;4.75;54.17;100948.56;10469714;28;20141;-67
2022/02/07 16:25:32;;;;;;;10.23;2.10;;;;;;;4.70;54.48;100959.88;10468326;28;20044;-67
2022/02/07 16:30:35;;;;;;;7.93;2.47;;;;;;;4.76;54.29;100961.47;10468376;28;20471;-67
2022/02/07 16:35:38;;;;;;;13.40;2.53;;;;;;;4.81;53.90;100966.59;10468239;28;20040;-67
2022/02/07 16:40:43;;;;;;;12.20;2.70;;;;;;;4.77;53.93;100975.31;10467072;28;20122;-68
2022/02/07 16:50:50;;;;;;;9.45;2.22;;;;;;;4.72;54.04;100978.84;10467176;28;20141;-68
2022/02/07 16:55:53;;;;;;;10.10;2.80;;;;;;;4.76;53.97;100976.19;10467440;28;20048;-67
2022/02/07 17:00:55;;;;;;;11.15;3.33;;;;;;;4.69;54.23;100975.47;10468235;28;20083;-69
2022/02/07 17:05:57;;;;;;;11.63;3.63;;;;;;;4.56;54.05;100986.91;10468222;28;20427;-68
2022/02/07 17:10:59;;;;;;;8.70;2.30;;;;;;;4.47;54.45;100997.47;10466991;28;20047;-68
2022/02/07 17:16:01;;;;;;;10.73;3.25;;;;;;;4.41;54.72;101003.59;10467662;28;20523;-68
2022/02/07 17:21:03;;;;;;;9.98;2.78;;;;;;;4.31;55.01;101007.22;10467867;28;20048;-68
2022/02/07 17:26:05;;;;;;;9.75;3.40;;;;;;;4.23;54.99;101008.25;10467925;28;20318;-68
2022/02/07 17:31:13;;;;;;;10.55;2.47;;;;;;;4.10;55.60;101010.19;10468214;28;20147;-68
2022/02/07 17:36:15;;;;;;;12.38;2.30;;;;;;;4.07;55.42;101015.41;10467911;28;20542;-68
2022/02/07 17:41:17;;;;;;;10.07;3.42;;;;;;;3.99;55.75;101027.59;10466975;28;20508;-68
2022/02/07 17:46:23;;;;;;;56.17;25.55;;;;;;;3.91;55.79;101034.63;10467684;28;20074;-68
2022/02/07 17:51:29;;;;;;;59.53;24.67;;;;;;;3.75;56.37;101026.22;10468017;28;20139;-68
2022/02/07 17:56:31;;;;;;;45.25;21.13;;;;;;;3.67;56.36;101022.03;10465795;28;20056;-68
2022/02/07 18:01:33;;;;;;;32.85;13.73;;;;;;;3.56;56.95;101026.50;10471503;28;20054;-67
2022/02/07 18:06:35;;;;;;;24.15;9.25;;;;;;;3.54;56.98;101025.66;10473950;28;20049;-67
2022/02/07 18:11:36;;;;;;;13.27;3.33;;;;;;;3.44;57.23;101016.31;10469656;28;20048;-68
2022/02/07 18:16:40;;;;;;;10.75;2.97;;;;;;;3.42;57.03;101024.09;10464579;28;20048;-68
2022/02/07 18:21:42;;;;;;;7.68;2.60;;;;;;;3.40;56.97;101027.56;10471788;28;20058;-65
2022/02/07 18:26:44;;;;;;;13.57;2.80;;;;;;;3.37;57.15;101035.38;10470870;28;20053;-68
2022/02/07 18:31:45;;;;;;;8.15;2.75;;;;;;;3.37;57.06;101036.25;10472733;28;20052;-67
2022/02/07 18:36:49;;;;;;;12.25;3.10;;;;;;;3.37;57.00;101035.38;10470582;28;20491;-68
2022/02/07 18:42:00;;;;;;;13.27;5.53;;;;;;;3.36;57.13;101037.13;10471997;28;20058;-68
2022/02/07 18:47:10;;;;;;;15.93;5.38;;;;;;;3.28;57.10;101038.94;10471284;28;20052;-68
2022/02/07 18:52:11;;;;;;;29.00;13.95;;;;;;;3.23;57.38;101042.47;10470130;28;20135;-68
2022/02/07 18:57:13;;;;;;;7.68;2.63;;;;;;;3.14;57.48;101027.06;10470791;28;20041;-65
2022/02/07 19:02:26;;;;;;;10.15;3.03;;;;;;;3.15;57.47;101037.41;10471354;28;20059;-67
2022/02/07 19:07:27;;;;;;;13.57;2.70;;;;;;;3.13;57.41;101040.88;10467774;28;20049;-68
2022/02/07 19:12:29;;;;;;;11.15;2.90;;;;;;;3.07;57.46;101036.59;10468688;28;20210;-70
2022/02/07 19:17:34;;;;;;;8.75;2.45;;;;;;;2.96;57.78;101044.50;10468381;28;20489;-70
2022/02/07 19:22:39;;;;;;;7.93;2.60;;;;;;;2.85;58.06;101042.88;10467715;28;20052;-69
2022/02/07 19:27:53;;;;;;;8.18;2.90;;;;;;;2.73;58.33;101056.78;10476752;28;20056;-70
2022/02/07 19:33:00;;;;;;;11.00;3.38;;;;;;;2.68;58.45;101047.41;10470781;28;20044;-69
2022/02/07 19:38:02;;;;;;;12.63;3.45;;;;;;;2.58;58.63;101059.50;10469731;28;20054;-69
2022/02/07 19:48:12;;;;;;;11.82;4.95;;;;;;;2.49;59.36;101059.63;10467467;28;20098;-69
2022/02/07 19:53:14;;;;;;;14.10;4.20;;;;;;;2.58;59.07;101062.09;10467528;28;20048;-69
2022/02/07 19:58:17;;;;;;;10.15;3.20;;;;;;;2.69;58.72;101069.75;10469147;28;20702;-69
2022/02/07 20:03:21;;;;;;;9.93;2.88;;;;;;;2.79;58.47;101067.06;10479046;28;20539;-69
2022/02/07 20:08:24;;;;;;;13.63;3.28;;;;;;;2.95;58.11;101071.19;10488852;28;20052;-70
2022/02/07 20:13:29;;;;;;;7.90;3.13;;;;;;;3.02;57.82;101078.03;10467659;28;20505;-70
2022/02/07 20:18:30;;;;;;;8.48;2.85;;;;;;;3.04;57.80;101083.16;10466868;28;20048;-70
2022/02/07 20:23:35;;;;;;;9.02;2.92;;;;;;;3.07;57.75;101078.81;10465005;28;20048;-69
2022/02/07 20:28:39;;;;;;;9.48;3.35;;;;;;;3.10;57.69;101070.19;10467303;28;20052;-70
2022/02/07 20:33:43;;;;;;;11.30;3.38;;;;;;;3.14;57.65;101071.84;10470656;28;20054;-70
2022/02/07 20:38:44;;;;;;;7.63;2.83;;;;;;;3.09;57.66;101078.78;10467106;28;20412;-69
2022/02/07 20:43:47;;;;;;;10.43;2.90;;;;;;;3.13;57.50;101066.72;10468055;28;20060;-70
2022/02/07 20:48:53;;;;;;;8.85;2.40;;;;;;;3.16;57.46;101072.69;10465311;28;20052;-70
2022/02/07 20:53:55;;;;;;;12.82;3.00;;;;;;;3.17;57.46;101076.16;10465907;28;20045;-69
2022/02/07 20:58:58;;;;;;;8.60;2.25;;;;;;;3.20;57.09;101084.72;10464191;28;20650;-70
2022/02/07 21:04:07;;;;;;;10.60;2.70;;;;;;;3.25;57.19;101089.84;10467223;28;20314;-70
2022/02/07 21:09:16;;;;;;;9.88;2.75;;;;;;;3.26;56.92;101091.53;10463911;28;20121;-70
2022/02/07 21:14:18;;;;;;;9.23;2.75;;;;;;;3.20;57.20;101089.00;10464903;28;20098;-71
2022/02/07 21:19:22;;;;;;;13.88;2.83;;;;;;;3.00;57.30;101097.88;10467496;28;20056;-71
2022/02/07 21:24:24;;;;;;;8.70;2.63;;;;;;;2.79;57.83;101098.06;10469102;28;20051;-71
2022/02/07 21:29:26;;;;;;;6.55;2.30;;;;;;;2.66;57.63;101099.03;10467474;28;20586;-71
2022/02/07 21:34:51;;;;;;;7.68;2.50;;;;;;;2.58;57.87;101102.59;10469254;28;20123;-70
2022/02/07 21:39:53;;;;;;;7.55;2.90;;;;;;;2.50;58.11;101099.22;10473165;28;20496;-70
2022/02/07 21:45:02;;;;;;;8.18;2.67;;;;;;;2.48;58.18;101100.94;10474598;28;20051;-70
2022/02/07 21:50:04;;;;;;;9.77;2.60;;;;;;;2.49;58.34;101113.84;10473468;28;20044;-70
2022/02/07 21:55:07;;;;;;;12.27;3.00;;;;;;;2.61;58.18;101118.03;10472531;28;20057;-71
2022/02/07 22:00:10;;;;;;;11.73;3.50;;;;;;;2.74;58.15;101117.06;10472108;28;20306;-70
2022/02/07 22:05:12;;;;;;;7.05;2.40;;;;;;;2.89;57.85;101128.09;10473973;28;20068;-70
2022/02/07 22:10:14;;;;;;;10.77;2.50;;;;;;;3.01;57.64;101132.28;10470252;28;20051;-70
2022/02/07 22:20:52;;;;;;;11.00;2.85;;;;;;;3.03;57.67;101121.06;10472427;28;20474;-70
2022/02/07 22:26:06;;;;;;;7.07;2.95;;;;;;;3.09;57.56;101127.06;10471401;28;20072;-70
2022/02/07 22:31:17;;;;;;;9.00;3.15;;;;;;;3.09;57.88;101132.22;10467961;28;20505;-70
2022/02/07 22:36:21;;;;;;;8.77;2.92;;;;;;;3.10;58.21;101136.50;10470587;28;20619;-69
2022/02/07 22:41:23;;;;;;;8.40;2.40;;;;;;;3.24;58.00;101139.81;10468507;28;20056;-69
2022/02/07 22:46:25;;;;;;;9.70;2.78;;;;;;;3.24;57.87;101147.56;10467253;28;20473;-70
2022/02/07 22:51:27;;;;;;;7.65;2.47;;;;;;;3.26;57.99;101146.69;10469672;28;20044;-70
2022/02/07 22:56:29;;;;;;;5.97;2.75;;;;;;;3.29;57.92;101157.00;10468423;28;20044;-69
2022/02/07 23:01:31;;;;;;;11.48;3.15;;;;;;;3.36;57.72;101152.59;10468913;28;20049;-69
2022/02/07 23:06:34;;;;;;;11.32;2.97;;;;;;;3.31;57.74;101149.22;10470666;28;20044;-70
2022/02/07 23:16:58;;;;;;;13.25;3.17;;;;;;;3.36;58.22;101152.59;10466143;28;20408;-70
2022/02/07 23:22:38;;;;;;;9.68;2.47;;;;;;;3.34;58.00;101155.22;10463041;28;20516;-70
2022/02/07 23:38:19;;;;;;;15.30;5.10;;;;;;;3.27;58.46;101160.47;10469902;28;20055;-70
2022/02/07 23:43:26;;;;;;;8.77;2.50;;;;;;;3.28;58.08;101157.00;10464921;28;20059;-70
2022/02/07 23:48:31;;;;;;;10.52;2.90;;;;;;;3.28;58.24;101167.34;10464613;28;20060;-69
2022/02/07 23:53:59;;;;;;;10.80;2.90;;;;;;;3.18;58.49;101164.00;10458131;28;20051;-69
2022/02/07 23:59:27;;;;;;;10.13;2.55;;;;;;;3.16;58.64;101170.06;10465434;28;20504;-69
